Terminal Aerodrome Forecast
Issued by NWS Pendleton, OR

Home | Current Version | Previous Version | Text Only | Print | Product List | Glossary On
Versions: 1 2 3 4 5 6 7 8 9 10 11 12 13 14 15 16 17 18 19 20 21 22 23 24 25 26 27 28
000
FTUS46 KPDT 171720
TAFPDT
TAF
KPDT 171720Z 1718/1818 14005KT 4SM BR OVC090
      TEMPO 1718/1720 3SM -FZRASN BR OVC050
     FM180400 16006KT 3SM -FZRA BR OVC040
     FM181000 17010KT 4SM -RA BR OVC030=

USA.gov is the U.S. government's official web portal to all federal, state and local government web resources and services.